Regal Star — ESCM — position and weather

sailwx.info

Track history (hours):
 
Tides and Currents Weather Stations Pressure Air Temp Water Temp Dewpoint Dewpoint Depression Visibility Wind Speed Wind Dir Waves Ship Positions

Regal Star

Last reported at 2016-May-05 23:33 UTC. Time now 2016-May-06 12:57 UTC.
Position N 59°37' E 021°20'.

Length 157 m; draft 5.9 m.

Type: Passenger vessel. MMSI: 276554000.

Date/timePositionNaut miles runAvg speedWind from/ knotsBaromVisibWave heightAir tempDewpointWater temp
2016-May-05 23:33N 59°37' E 021°20'1515.2
2016-May-05 22:33N 59°34' E 021°49'1515.3
2016-May-05 21:33N 59°33' E 022°19'1915.0
2016-May-05 20:18N 59°33' E 022°57'1114.5
2016-May-05 19:33N 59°28' E 023°16'1515.2
2016-May-05 18:33N 59°24' E 023°45'1110.9
2016-May-05 17:33N 59°20' E 024°05'0 0.0
2016-May-05 13:30N 59°20' E 024°05'0 0.0
2016-May-05 05:21N 59°20' E 024°05'1113.1
2016-May-05 04:31N 59°23' E 023°44'1515.1
2016-May-05 03:33N 59°23' E 023°16'1515.5
2016-May-05 02:33N 59°23' E 022°45'1915.5
2016-May-05 01:18N 59°26' E 022°08'1415.4
2016-May-05 00:24N 59°30' E 021°41'1315.2
2016-May-04 23:34N 59°34' E 021°17'6 0.2
2016-May-03 23:27N 59°29' E 021°11'1515.5
2016-May-03 22:29N 59°26' E 021°40'1415.5
2016-May-03 21:33N 59°23' E 022°07'44 2.5
2016-May-03 04:08N 59°23' E 023°34'915.3
2016-May-03 03:33N 59°23' E 023°16'1010.1
2016-May-03 02:33N 59°23' E 022°56'2015.4
2016-May-03 01:14N 59°25' E 022°16'1015.4
2016-May-03 00:33N 59°28' E 021°57'1515.3
2016-May-02 23:34N 59°32' E 021°28'1515.2
2016-May-02 22:33N 59°37' E 020°59'11 0.5
2016-May-01 23:33N 59°29' E 021°14'6615.2
2016-May-01 19:13N 59°22' E 023°23'12 2.5
2016-May-01 14:25N 59°23' E 023°46'1416.5
2016-May-01 13:33N 59°23' E 023°18'1716.5
2016-May-01 12:33N 59°23' E 022°46'1816.4
2016-May-01 11:29N 59°26' E 022°12'1516.4
2016-May-01 10:33N 59°30' E 021°43'1616.4
2016-May-01 09:33N 59°35' E 021°12'5 0.5
2016-Apr-30 23:33N 59°30' E 021°10'1515.5
2016-Apr-30 22:33N 59°26' E 021°40'1615.6
2016-Apr-30 21:34N 59°22' E 022°10'3215.2
2016-Apr-30 19:28N 59°21' E 023°12'1415.7
2016-Apr-30 18:33N 59°22' E 023°40'1 0.1
2016-Apr-30 04:29N 59°23' E 023°42'1415.0
2016-Apr-30 03:33N 59°23' E 023°15'1515.3
2016-Apr-30 02:33N 59°22' E 022°44'1615.0
2016-Apr-30 01:31N 59°25' E 022°14'1515.3
2016-Apr-30 00:33N 59°30' E 021°47'1515.2
2016-Apr-29 23:33N 59°34' E 021°18'5 0.2
2016-Apr-28 23:33N 59°29' E 021°17'1815.8
2016-Apr-28 22:26N 59°25' E 021°51'58 3.3
2016-Apr-28 04:29N 59°23' E 023°46'1212.5
2016-Apr-28 03:31N 59°23' E 023°22'1412.5
2016-Apr-28 02:26N 59°23' E 022°56'3015.9
2016-Apr-28 00:33N 59°28' E 021°58'3215.9
2016-Apr-27 22:31N 59°37' E 020°57'11 0.5
2016-Apr-26 23:33N 59°37' E 021°19'1514.9
2016-Apr-26 22:33N 59°34' E 021°48'4615.0
2016-Apr-26 19:31N 59°28' E 023°17'5 0.3
2016-Apr-26 03:17N 59°23' E 023°14'2714.9
2016-Apr-26 01:28N 59°24' E 022°21'1415.0
2016-Apr-26 00:33N 59°28' E 021°55'  
Track history (hours):
 
Tides and Currents Weather Stations Pressure Air Temp Water Temp Dewpoint Dewpoint Depression Visibility Wind Speed Wind Dir Waves Ship Positions

Regal Star

Last reported at 2016-May-05 23:33 UTC. Time now 2016-May-06 12:57 UTC.
Position N 59°37' E 021°20'.

Length 157 m; draft 5.9 m.

Type: Passenger vessel. MMSI: 276554000.

Date/timePositionNaut miles runAvg speedWind from/ knotsBaromVisibWave heightAir tempDewpointWater temp
2016-May-05 23:33N 59°37' E 021°20'1515.2
2016-May-05 22:33N 59°34' E 021°49'1515.3
2016-May-05 21:33N 59°33' E 022°19'1915.0
2016-May-05 20:18N 59°33' E 022°57'1114.5
2016-May-05 19:33N 59°28' E 023°16'1515.2
2016-May-05 18:33N 59°24' E 023°45'1110.9
2016-May-05 17:33N 59°20' E 024°05'0 0.0
2016-May-05 13:30N 59°20' E 024°05'0 0.0
2016-May-05 05:21N 59°20' E 024°05'1113.1
2016-May-05 04:31N 59°23' E 023°44'1515.1
2016-May-05 03:33N 59°23' E 023°16'1515.5
2016-May-05 02:33N 59°23' E 022°45'1915.5
2016-May-05 01:18N 59°26' E 022°08'1415.4
2016-May-05 00:24N 59°30' E 021°41'1315.2
2016-May-04 23:34N 59°34' E 021°17'6 0.2
2016-May-03 23:27N 59°29' E 021°11'1515.5
2016-May-03 22:29N 59°26' E 021°40'1415.5
2016-May-03 21:33N 59°23' E 022°07'44 2.5
2016-May-03 04:08N 59°23' E 023°34'915.3
2016-May-03 03:33N 59°23' E 023°16'1010.1
2016-May-03 02:33N 59°23' E 022°56'2015.4
2016-May-03 01:14N 59°25' E 022°16'1015.4
2016-May-03 00:33N 59°28' E 021°57'1515.3
2016-May-02 23:34N 59°32' E 021°28'1515.2
2016-May-02 22:33N 59°37' E 020°59'11 0.5
2016-May-01 23:33N 59°29' E 021°14'6615.2
2016-May-01 19:13N 59°22' E 023°23'12 2.5
2016-May-01 14:25N 59°23' E 023°46'1416.5
2016-May-01 13:33N 59°23' E 023°18'1716.5
2016-May-01 12:33N 59°23' E 022°46'1816.4
2016-May-01 11:29N 59°26' E 022°12'1516.4
2016-May-01 10:33N 59°30' E 021°43'1616.4
2016-May-01 09:33N 59°35' E 021°12'5 0.5
2016-Apr-30 23:33N 59°30' E 021°10'1515.5
2016-Apr-30 22:33N 59°26' E 021°40'1615.6
2016-Apr-30 21:34N 59°22' E 022°10'3215.2
2016-Apr-30 19:28N 59°21' E 023°12'1415.7
2016-Apr-30 18:33N 59°22' E 023°40'1 0.1
2016-Apr-30 04:29N 59°23' E 023°42'1415.0
2016-Apr-30 03:33N 59°23' E 023°15'1515.3
2016-Apr-30 02:33N 59°22' E 022°44'1615.0
2016-Apr-30 01:31N 59°25' E 022°14'1515.3
2016-Apr-30 00:33N 59°30' E 021°47'1515.2
2016-Apr-29 23:33N 59°34' E 021°18'5 0.2
2016-Apr-28 23:33N 59°29' E 021°17'1815.8
2016-Apr-28 22:26N 59°25' E 021°51'58 3.3
2016-Apr-28 04:29N 59°23' E 023°46'1212.5
2016-Apr-28 03:31N 59°23' E 023°22'1412.5
2016-Apr-28 02:26N 59°23' E 022°56'3015.9
2016-Apr-28 00:33N 59°28' E 021°58'3215.9
2016-Apr-27 22:31N 59°37' E 020°57'11 0.5
2016-Apr-26 23:33N 59°37' E 021°19'1514.9
2016-Apr-26 22:33N 59°34' E 021°48'4615.0
2016-Apr-26 19:31N 59°28' E 023°17'5 0.3
2016-Apr-26 03:17N 59°23' E 023°14'2714.9
2016-Apr-26 01:28N 59°24' E 022°21'1415.0
2016-Apr-26 00:33N 59°28' E 021°55'  

Dump ship's entire track history